createdAt,value
2022-12-02T00:00:49.321Z,101531.47
2022-12-02T00:02:54.983Z,101533.97
2022-12-02T00:05:04.074Z,101531.55
2022-12-02T00:07:09.360Z,101525.71
2022-12-02T00:09:14.768Z,101524.75
2022-12-02T00:11:22.064Z,101522.87
2022-12-02T00:13:27.275Z,101524.35
2022-12-02T00:15:32.607Z,101520.11
2022-12-02T00:17:37.666Z,101522.2
2022-12-02T00:19:45.094Z,101514.81
2022-12-02T00:21:50.603Z,101510.88
2022-12-02T00:23:55.834Z,101511.7
2022-12-02T00:26:02.096Z,101509.97
2022-12-02T00:28:23.323Z,101511.66
2022-12-02T00:30:28.644Z,101514.2
2022-12-02T00:32:34.433Z,101514.02
2022-12-02T00:34:39.709Z,101519.7
2022-12-02T00:36:44.970Z,101524.3
2022-12-02T00:38:50.253Z,101520.69
2022-12-02T00:40:55.588Z,101519.75
2022-12-02T00:43:00.750Z,101520.36
2022-12-02T00:45:06.142Z,101519.72
2022-12-02T00:47:11.312Z,101520.45
2022-12-02T00:49:16.875Z,101522.47
2022-12-02T00:51:22.545Z,101526
2022-12-02T00:53:27.803Z,101524.02
2022-12-02T00:55:32.890Z,101524.09
2022-12-02T00:57:38.142Z,101519.69
2022-12-02T01:00:04.500Z,101521.23
2022-12-02T01:02:09.802Z,101520.98
2022-12-02T01:04:15.700Z,101518.48
2022-12-02T01:06:21.042Z,101521.27
2022-12-02T01:08:26.385Z,101518.92
2022-12-02T01:10:31.687Z,101516.91
2022-12-02T01:12:37.260Z,101518.72
2022-12-02T01:14:42.464Z,101514.44
2022-12-02T01:16:47.823Z,101514.55
2022-12-02T01:18:53.277Z,101510.73
2022-12-02T01:21:00.564Z,101506.2
2022-12-02T01:23:06.729Z,101506.79
2022-12-02T01:25:15.994Z,101509.19
2022-12-02T01:27:23.350Z,101515.15
2022-12-02T01:29:28.687Z,101515.93
2022-12-02T01:31:34.035Z,101517.42
2022-12-02T01:33:39.626Z,101517.84
2022-12-02T01:35:44.814Z,101518.75
2022-12-02T01:37:51.408Z,101515.81
2022-12-02T01:39:56.570Z,101516
2022-12-02T01:42:04.261Z,101513.48
2022-12-02T01:44:09.628Z,101510.66
2022-12-02T01:46:18.072Z,101509.2
2022-12-02T01:48:23.607Z,101508.88
2022-12-02T01:50:30.996Z,101507.98
2022-12-02T01:52:36.383Z,101506.06
2022-12-02T01:54:41.583Z,101498.55
2022-12-02T01:56:46.863Z,101492.5
2022-12-02T01:58:52.195Z,101492.64
2022-12-02T02:00:57.950Z,101496.02
2022-12-02T02:03:04.235Z,101494.67
2022-12-02T02:05:11.707Z,101494.87
2022-12-02T02:07:17.095Z,101489.44
2022-12-02T02:09:22.794Z,101489.92
2022-12-02T02:11:28.313Z,101492.81
2022-12-02T02:13:33.947Z,101486.59
2022-12-02T02:15:39.174Z,101483.77
2022-12-02T02:17:44.801Z,101487.7
2022-12-02T02:19:50.251Z,101480.16
2022-12-02T02:21:55.583Z,101479.44
2022-12-02T02:24:01.138Z,101479.98
2022-12-02T02:26:06.636Z,101481.16
2022-12-02T02:28:12.070Z,101475.23
2022-12-02T02:30:17.448Z,101476.52
2022-12-02T02:32:23.054Z,101472.98
2022-12-02T02:34:28.269Z,101472.47
2022-12-02T02:36:33.560Z,101473.45
2022-12-02T02:38:39.089Z,101478.48
2022-12-02T02:40:44.386Z,101470.78
2022-12-02T02:42:49.798Z,101475.08
2022-12-02T02:44:55.236Z,101479.27
2022-12-02T02:47:00.480Z,101476.43
2022-12-02T02:49:06.839Z,101477.27
2022-12-02T02:51:12.314Z,101481.59
2022-12-02T02:53:17.608Z,101480.48
2022-12-02T02:55:23.089Z,101478.05
2022-12-02T02:57:28.544Z,101475.64
2022-12-02T02:59:34.021Z,101475.16
2022-12-02T03:01:39.623Z,101476.03
2022-12-02T03:03:45.337Z,101477.61
2022-12-02T03:05:50.803Z,101474.64
2022-12-02T03:07:56.172Z,101473.59
2022-12-02T03:10:02.042Z,101471.98
2022-12-02T03:12:07.310Z,101474.41
2022-12-02T03:14:16.862Z,101473.27
2022-12-02T03:16:22.631Z,101472.62
2022-12-02T03:18:28.203Z,101466.41
2022-12-02T03:20:33.473Z,101464.86
2022-12-02T03:22:38.930Z,101467.83
2022-12-02T03:24:44.531Z,101466.45
2022-12-02T03:26:53.351Z,101467.75
2022-12-02T03:28:58.623Z,101462.3
2022-12-02T03:31:04.613Z,101462.52
2022-12-02T03:33:10.553Z,101461.22
2022-12-02T03:35:16.208Z,101462.37
2022-12-02T03:37:21.960Z,101464.13
2022-12-02T03:39:27.514Z,101460.36
2022-12-02T03:41:33.181Z,101457.39
2022-12-02T03:43:38.970Z,101464.23
2022-12-02T03:45:59.002Z,101461.19
2022-12-02T03:48:04.672Z,101464.65
2022-12-02T03:50:10.075Z,101458.42
2022-12-02T03:52:15.571Z,101457.64
2022-12-02T03:54:21.138Z,101461.42
2022-12-02T03:56:26.449Z,101458.98
2022-12-02T03:58:32.381Z,101462.52
2022-12-02T04:00:37.654Z,101456.92
2022-12-02T04:02:44.409Z,101461.92
2022-12-02T04:04:50.430Z,101460.3
2022-12-02T04:06:56.659Z,101461.58
2022-12-02T04:09:02.202Z,101459.32
2022-12-02T04:11:07.473Z,101461.33
2022-12-02T04:13:13.264Z,101455.75
2022-12-02T04:15:18.899Z,101454.57
2022-12-02T04:17:24.325Z,101452.08
2022-12-02T04:19:29.447Z,101450.46
2022-12-02T04:21:34.855Z,101450.44
2022-12-02T04:23:40.294Z,101450.45
2022-12-02T04:25:45.611Z,101445.06
2022-12-02T04:27:51.132Z,101444.2
2022-12-02T04:30:00.172Z,101439.24
2022-12-02T04:32:05.633Z,101444.45
2022-12-02T04:34:11.104Z,101436.27
2022-12-02T04:36:16.651Z,101438.84
2022-12-02T04:38:21.847Z,101441.83
2022-12-02T04:40:27.060Z,101441.83
2022-12-02T04:42:32.545Z,101438.84
2022-12-02T04:44:37.900Z,101441.09
2022-12-02T04:46:43.394Z,101442.61
2022-12-02T04:48:49.091Z,101441.75
2022-12-02T04:50:54.631Z,101438.7
2022-12-02T04:53:00.021Z,101448.09
2022-12-02T04:55:05.498Z,101440.69
2022-12-02T04:57:10.985Z,101443.96
2022-12-02T04:59:16.438Z,101440.22
2022-12-02T05:01:21.804Z,101440.5
2022-12-02T05:03:27.370Z,101440.27
2022-12-02T05:05:34.013Z,101446.46
2022-12-02T05:07:39.614Z,101442.32
2022-12-02T05:09:45.634Z,101449.98
2022-12-02T05:11:51.601Z,101448.97
2022-12-02T05:13:57.241Z,101444.03
2022-12-02T05:16:02.785Z,101448.61
2022-12-02T05:18:08.298Z,101447.85
2022-12-02T05:20:13.470Z,101450.63
2022-12-02T05:22:18.547Z,101448.3
2022-12-02T05:24:24.082Z,101448.92
2022-12-02T05:26:29.741Z,101450.47
2022-12-02T05:28:35.141Z,101451.66
2022-12-02T05:30:40.341Z,101449.78
2022-12-02T05:32:45.484Z,101449.67
2022-12-02T05:34:52.525Z,101451.66
2022-12-02T05:36:58.042Z,101451.66
2022-12-02T05:39:03.432Z,101448.47
2022-12-02T05:41:08.918Z,101450.58
2022-12-02T05:43:14.270Z,101451.48
2022-12-02T05:45:19.664Z,101446.24
2022-12-02T05:47:25.403Z,101448.74
2022-12-02T05:49:30.974Z,101447.91
2022-12-02T05:51:36.355Z,101451.6
2022-12-02T05:53:41.624Z,101450.66
2022-12-02T05:55:46.860Z,101452.39
2022-12-02T05:57:52.167Z,101454.33
2022-12-02T05:59:57.474Z,101458.33
2022-12-02T06:02:03.015Z,101459.92
2022-12-02T06:04:08.890Z,101464.95
2022-12-02T06:06:15.295Z,101464.72
2022-12-02T06:08:20.351Z,101471.3
2022-12-02T06:10:25.568Z,101471.73
2022-12-02T06:12:30.882Z,101472.07
2022-12-02T06:14:36.248Z,101474.13
2022-12-02T06:16:41.382Z,101474.28
2022-12-02T06:18:47.032Z,101475.09
2022-12-02T06:20:53.296Z,101479.78
2022-12-02T06:22:58.593Z,101482.9
2022-12-02T06:25:06.254Z,101484.33
2022-12-02T06:27:11.427Z,101485.67
2022-12-02T06:29:16.647Z,101489.24
2022-12-02T06:31:22.040Z,101485.74
2022-12-02T06:33:27.377Z,101488.7
2022-12-02T06:35:32.622Z,101490.7
2022-12-02T06:37:37.857Z,101496.05
2022-12-02T06:40:27.307Z,101496.66
2022-12-02T06:42:34.355Z,101502.67
2022-12-02T06:44:39.571Z,101506.67
2022-12-02T06:46:44.588Z,101503.66
2022-12-02T06:48:50.267Z,101505.28
2022-12-02T06:50:55.292Z,101503.66
2022-12-02T06:53:00.525Z,101507.05
2022-12-02T06:55:05.518Z,101505
2022-12-02T06:57:10.656Z,101507.39
2022-12-02T06:59:15.821Z,101508.44
2022-12-02T07:01:21.306Z,101508.61
2022-12-02T07:03:26.767Z,101507.39
2022-12-02T07:05:31.851Z,101507.4
2022-12-02T07:07:37.253Z,101508.03
2022-12-02T07:09:42.679Z,101505.78
2022-12-02T07:11:47.830Z,101505.13
2022-12-02T07:13:53.982Z,101510.02
2022-12-02T07:15:59.964Z,101507.16
2022-12-02T07:18:05.841Z,101511.84
2022-12-02T07:20:11.556Z,101506.28
2022-12-02T07:22:17.066Z,101509.27
2022-12-02T07:24:22.817Z,101510.81
2022-12-02T07:26:28.370Z,101513.17
2022-12-02T07:28:33.600Z,101513.61
2022-12-02T07:30:39.193Z,101512.94
2022-12-02T07:32:44.560Z,101521.19
2022-12-02T07:34:51.064Z,101517.48
2022-12-02T07:36:56.959Z,101521.25
2022-12-02T07:39:09.385Z,101516.58
2022-12-02T07:41:14.338Z,101513.52
2022-12-02T07:43:19.596Z,101511.58
2022-12-02T07:45:24.616Z,101515.64
2022-12-02T07:47:29.757Z,101515.36
2022-12-02T07:49:34.814Z,101512.66
2022-12-02T07:51:40.024Z,101513.55
2022-12-02T07:53:44.968Z,101516.94
2022-12-02T07:55:50.101Z,101515.86
2022-12-02T07:57:55.127Z,101517.22
2022-12-02T08:00:00.436Z,101512.96
2022-12-02T08:02:05.887Z,101511.97
2022-12-02T08:04:11.039Z,101513.21
2022-12-02T08:06:16.320Z,101517.79
2022-12-02T08:08:21.369Z,101515.98
2022-12-02T08:10:26.458Z,101515.05
2022-12-02T08:12:32.118Z,101511.16
2022-12-02T08:14:37.253Z,101508.63
2022-12-02T08:16:42.986Z,101513.27
2022-12-02T08:18:48.433Z,101509.31
2022-12-02T08:20:54.001Z,101504.93
2022-12-02T08:23:01.672Z,101508.41
2022-12-02T08:25:06.743Z,101505.55
2022-12-02T08:27:11.861Z,101508.36
2022-12-02T08:29:19.899Z,101501.88
2022-12-02T08:31:25.094Z,101507.03
2022-12-02T08:33:30.640Z,101501.98
2022-12-02T08:35:35.749Z,101504.91
2022-12-02T08:37:40.865Z,101507.3
2022-12-02T08:39:45.727Z,101508.27
2022-12-02T08:41:50.960Z,101512.05
2022-12-02T08:43:56.585Z,101510.63
2022-12-02T08:46:01.863Z,101516.4
2022-12-02T08:48:07.533Z,101518.83
2022-12-02T08:50:12.943Z,101514.34
2022-12-02T08:52:18.144Z,101516.38
2022-12-02T08:54:23.540Z,101516.36
2022-12-02T08:56:28.575Z,101514.93
2022-12-02T08:58:33.692Z,101513.98
2022-12-02T09:00:40.848Z,101507.88
2022-12-02T09:02:46.023Z,101502.06
2022-12-02T09:04:52.404Z,101504.56
2022-12-02T09:07:01.208Z,101501.74
2022-12-02T09:09:06.833Z,101501.75
2022-12-02T09:11:12.870Z,101501.13
2022-12-02T09:13:18.593Z,101502.11
2022-12-02T09:15:23.686Z,101497.16
2022-12-02T09:17:28.971Z,101503.03
2022-12-02T09:19:34.131Z,101502.54
2022-12-02T09:21:43.292Z,101494.5
2022-12-02T09:23:52.090Z,101498.02
2022-12-02T09:25:57.502Z,101493.08
2022-12-02T09:28:02.628Z,101498
2022-12-02T09:30:08.408Z,101500.84
2022-12-02T09:32:14.033Z,101499.45
2022-12-02T09:34:19.394Z,101500.34
2022-12-02T09:36:37.698Z,101498.46
2022-12-02T09:38:44.251Z,101500.2
2022-12-02T09:40:49.573Z,101494.51
2022-12-02T09:42:55.045Z,101497.44
2022-12-02T09:45:00.306Z,101500.62
2022-12-02T09:47:08.404Z,101500.95
2022-12-02T09:49:13.812Z,101499.38
2022-12-02T09:51:19.527Z,101498.54
2022-12-02T09:53:25.183Z,101495.77
2022-12-02T09:55:30.423Z,101492.5
2022-12-02T09:57:41.741Z,101497.77
2022-12-02T09:59:47.236Z,101493.13
2022-12-02T10:01:52.671Z,101499.55
2022-12-02T10:03:58.119Z,101497.31
2022-12-02T10:06:03.771Z,101497.09
2022-12-02T10:08:09.431Z,101499.73
2022-12-02T10:10:15.364Z,101495.58
2022-12-02T10:12:21.405Z,101505.28
2022-12-02T10:14:27.335Z,101500.45
2022-12-02T10:16:33.125Z,101500.73
2022-12-02T10:18:39.370Z,101497.91
2022-12-02T10:20:44.770Z,101496.45
2022-12-02T10:22:50.004Z,101499.02
2022-12-02T10:24:55.674Z,101494.34
2022-12-02T10:27:01.226Z,101489.79
2022-12-02T10:29:06.739Z,101489.05
2022-12-02T10:31:12.370Z,101489.17
2022-12-02T10:33:17.988Z,101486.67
2022-12-02T10:35:23.608Z,101487.83
2022-12-02T10:37:28.995Z,101486.47
2022-12-02T10:39:39.178Z,101480.3
2022-12-02T10:41:44.586Z,101480.78
2022-12-02T10:43:50.175Z,101481.88
2022-12-02T10:45:55.470Z,101481.69
2022-12-02T10:48:00.805Z,101480.81
2022-12-02T10:50:06.225Z,101479.09
2022-12-02T10:52:11.624Z,101478.47
2022-12-02T10:54:17.050Z,101480.19
2022-12-02T10:56:22.325Z,101480.44
2022-12-02T10:58:27.698Z,101481.7
2022-12-02T11:00:33.384Z,101483.8
2022-12-02T11:02:48.397Z,101481.11
2022-12-02T11:04:54.948Z,101479.72
2022-12-02T11:07:00.995Z,101484.72
2022-12-02T11:09:40.628Z,101482.31
2022-12-02T11:11:46.546Z,101483.14
2022-12-02T11:13:51.861Z,101484.56
2022-12-02T11:15:57.543Z,101487.22
2022-12-02T11:18:03.456Z,101484.94
2022-12-02T11:20:10.027Z,101482.52
2022-12-02T11:22:15.506Z,101482.91
2022-12-02T11:24:21.013Z,101480.31
2022-12-02T11:26:27.105Z,101477.77
2022-12-02T11:28:32.299Z,101478.34
2022-12-02T11:30:37.380Z,101476.45
2022-12-02T11:32:42.443Z,101478.3
2022-12-02T11:35:21.669Z,101475.73
2022-12-02T11:37:28.626Z,101477.13
2022-12-02T11:39:33.839Z,101475.86
2022-12-02T11:41:39.072Z,101472.34
2022-12-02T11:43:44.181Z,101476.36
2022-12-02T11:45:49.379Z,101475.72
2022-12-02T11:47:54.675Z,101474.38
2022-12-02T11:50:00.028Z,101470.2
2022-12-02T11:52:09.961Z,101466.44
2022-12-02T11:54:18.289Z,101468.64
2022-12-02T11:56:23.390Z,101460.36
2022-12-02T11:58:28.436Z,101457.85
2022-12-02T12:00:39.250Z,101467.66
2022-12-02T12:02:44.727Z,101458.8
2022-12-02T12:04:50.831Z,101459.31
2022-12-02T12:06:56.805Z,101459.31
2022-12-02T12:09:01.792Z,101456.69
2022-12-02T12:11:06.865Z,101457.77
2022-12-02T12:13:19.450Z,101456.85
2022-12-02T12:15:24.436Z,101454.19
2022-12-02T12:17:29.551Z,101454.62
2022-12-02T12:19:34.496Z,101448.19
2022-12-02T12:21:39.460Z,101452.46
2022-12-02T12:23:44.658Z,101449.28
2022-12-02T12:25:50.358Z,101449.8
2022-12-02T12:27:55.882Z,101448.75
2022-12-02T12:30:01.068Z,101450.43
2022-12-02T12:32:06.120Z,101446.16
2022-12-02T12:34:11.464Z,101445.89
2022-12-02T12:36:16.642Z,101449.24
2022-12-02T12:38:30.324Z,101445.61
2022-12-02T12:40:35.858Z,101448.84
2022-12-02T12:42:41.341Z,101447.41
2022-12-02T12:44:46.431Z,101444.05
2022-12-02T12:46:51.612Z,101448.16
2022-12-02T12:48:56.652Z,101446.19
2022-12-02T12:51:01.615Z,101445.64
2022-12-02T12:53:07.655Z,101441.99
2022-12-02T12:55:12.762Z,101440.34
2022-12-02T12:57:17.774Z,101442.86
2022-12-02T12:59:22.996Z,101438.97
2022-12-02T13:01:28.201Z,101441.94
2022-12-02T13:03:33.678Z,101439.78
2022-12-02T13:05:38.735Z,101442.8
2022-12-02T13:07:43.828Z,101445.61
2022-12-02T13:09:49.251Z,101449.09
2022-12-02T13:11:55.382Z,101446.56
2022-12-02T13:14:00.462Z,101445.22
2022-12-02T13:16:05.612Z,101447.25
2022-12-02T13:18:11.093Z,101450.53
2022-12-02T13:20:16.291Z,101448.37
2022-12-02T13:22:21.563Z,101451.88
2022-12-02T13:24:27.134Z,101457.48
2022-12-02T13:26:32.259Z,101457.53
2022-12-02T13:28:37.679Z,101455.11
2022-12-02T13:30:44.342Z,101455.48
2022-12-02T13:32:49.765Z,101454.23
2022-12-02T13:34:55.671Z,101453.88
2022-12-02T13:37:01.045Z,101452.11
2022-12-02T13:39:08.156Z,101454.36
2022-12-02T13:41:13.427Z,101460.84
2022-12-02T13:43:18.682Z,101465.53
2022-12-02T13:45:23.993Z,101460.18
2022-12-02T13:47:29.571Z,101458.58
2022-12-02T13:49:38.460Z,101462.59
2022-12-02T13:51:43.886Z,101461.7
2022-12-02T13:53:51.200Z,101457.15
2022-12-02T13:56:03.128Z,101461.63
2022-12-02T13:58:29.243Z,101462.09
2022-12-02T14:00:34.370Z,101461.5
2022-12-02T14:02:39.444Z,101460.23
2022-12-02T14:04:44.685Z,101465.56
2022-12-02T14:06:50.100Z,101463.59
2022-12-02T14:08:55.418Z,101464.17
2022-12-02T14:11:00.578Z,101462.06
2022-12-02T14:13:07.912Z,101461.87
2022-12-02T14:15:24.313Z,101457.4
2022-12-02T14:17:29.933Z,101459.93
2022-12-02T14:19:35.355Z,101461.73
2022-12-02T14:21:40.670Z,101464.91
2022-12-02T14:23:46.052Z,101469.34
2022-12-02T14:25:51.810Z,101472.43
2022-12-02T14:27:57.236Z,101470.72
2022-12-02T14:30:02.767Z,101469.1
2022-12-02T14:32:08.510Z,101471.58
2022-12-02T14:34:15.503Z,101471.31
2022-12-02T14:36:21.047Z,101468.84
2022-12-02T14:38:26.860Z,101473.28
2022-12-02T14:40:32.465Z,101470.2
2022-12-02T14:42:37.837Z,101474.39
2022-12-02T14:44:43.088Z,101476.77
2022-12-02T14:46:48.944Z,101472.17
2022-12-02T14:49:31.051Z,101470.99
2022-12-02T14:51:46.748Z,101472.98
2022-12-02T14:53:51.814Z,101478.17
2022-12-02T14:55:57.004Z,101480.7
2022-12-02T14:58:02.505Z,101482.16
2022-12-02T15:00:08.124Z,101482.8
2022-12-02T15:02:15.022Z,101482.19
2022-12-02T15:04:20.597Z,101484.81
2022-12-02T15:06:26.164Z,101483.28
2022-12-02T15:08:31.769Z,101482.89
2022-12-02T15:10:43.590Z,101480.67
2022-12-02T15:12:49.779Z,101485.89
2022-12-02T15:15:30.462Z,101488.49
2022-12-02T15:17:44.951Z,101494.78
2022-12-02T15:19:50.487Z,101492.42
2022-12-02T15:21:57.558Z,101490.88
2022-12-02T15:24:06.307Z,101493.23
2022-12-02T15:26:11.979Z,101496.13
2022-12-02T15:28:17.473Z,101502.43
2022-12-02T15:30:23.382Z,101498.17
2022-12-02T15:32:29.419Z,101500.09
2022-12-02T15:34:35.877Z,101494.71
2022-12-02T15:36:45.532Z,101499.2
2022-12-02T15:38:50.918Z,101497.38
2022-12-02T15:41:00.497Z,101500.59
2022-12-02T15:43:07.055Z,101499.56
2022-12-02T15:45:13.395Z,101498.89
2022-12-02T15:47:20.341Z,101499.87
2022-12-02T15:49:27.274Z,101500.33
2022-12-02T15:51:33.790Z,101500.48
2022-12-02T15:53:40.481Z,101504.13
2022-12-02T15:55:46.121Z,101503.66
2022-12-02T15:57:52.913Z,101501.77
2022-12-02T16:00:01.443Z,101502
2022-12-02T16:02:08.313Z,101502.94
2022-12-02T16:04:15.600Z,101502.45
2022-12-02T16:06:23.161Z,101506.88
2022-12-02T16:08:29.370Z,101504.36
2022-12-02T16:10:38.647Z,101506.84
2022-12-02T16:12:44.414Z,101506.33
2022-12-02T16:14:57.005Z,101498.72
2022-12-02T16:17:06.640Z,101507.03
2022-12-02T16:19:14.020Z,101503.6
2022-12-02T16:21:19.782Z,101507.19
2022-12-02T16:23:26.380Z,101508.19
2022-12-02T16:25:33.761Z,101512.97
2022-12-02T16:27:39.687Z,101509.55
2022-12-02T16:29:49.255Z,101507.04
2022-12-02T16:31:54.994Z,101506.53
2022-12-02T16:34:01.335Z,101512
2022-12-02T16:36:07.622Z,101510.44
2022-12-02T16:38:13.658Z,101512.88
2022-12-02T16:40:19.078Z,101512.7
2022-12-02T16:42:27.579Z,101515.24
2022-12-02T16:44:34.559Z,101513.39
2022-12-02T16:46:40.704Z,101513.78
2022-12-02T16:48:50.347Z,101513.44
2022-12-02T16:50:57.508Z,101509.19
2022-12-02T16:53:03.209Z,101514
2022-12-02T16:55:09.796Z,101515.37
2022-12-02T16:57:15.950Z,101520.85
2022-12-02T16:59:21.279Z,101514.81
2022-12-02T17:01:28.225Z,101514.13
2022-12-02T17:03:35.407Z,101508.81
2022-12-02T17:05:42.776Z,101513.39
2022-12-02T17:07:49.500Z,101512.89
2022-12-02T17:09:55.520Z,101509.67
2022-12-02T17:12:02.363Z,101510.09
2022-12-02T17:14:09.718Z,101508.66
2022-12-02T17:16:16.699Z,101505.95
2022-12-02T17:18:23.240Z,101511.55
2022-12-02T17:20:29.371Z,101510.49
2022-12-02T17:22:35.770Z,101514.2
2022-12-02T17:24:41.732Z,101512.34
2022-12-02T17:26:55.568Z,101515.75
2022-12-02T17:29:01.889Z,101522.34
2022-12-02T17:31:08.138Z,101521.38
2022-12-02T17:33:15.441Z,101520.67
2022-12-02T17:35:21.338Z,101526.01
2022-12-02T17:37:29.353Z,101523.71
2022-12-02T17:39:36.270Z,101523.09
2022-12-02T17:41:43.522Z,101531.47
2022-12-02T17:43:50.471Z,101527.23
2022-12-02T17:45:56.644Z,101527.27
2022-12-02T17:48:03.788Z,101524.06
2022-12-02T17:50:10.112Z,101524.63
2022-12-02T17:52:21.715Z,101523.08
2022-12-02T17:54:27.138Z,101521.46
2022-12-02T17:56:43.204Z,101521.53
2022-12-02T17:58:51.637Z,101521.3
2022-12-02T18:00:58.942Z,101523.41
2022-12-02T18:03:16.540Z,101524.64
2022-12-02T18:05:28.581Z,101521.8
2022-12-02T18:07:42.364Z,101526.38
2022-12-02T18:09:49.987Z,101524.73
2022-12-02T18:12:01.080Z,101528.57
2022-12-02T18:14:07.458Z,101528.94
2022-12-02T18:16:15.722Z,101527.78
2022-12-02T18:18:23.785Z,101525
2022-12-02T18:20:31.943Z,101523.33
2022-12-02T18:22:39.418Z,101524.62
2022-12-02T18:24:50.316Z,101527.02
2022-12-02T18:26:59.645Z,101526.53
2022-12-02T18:29:08.079Z,101525.55
2022-12-02T18:31:14.778Z,101522.58
2022-12-02T18:33:23.811Z,101521.39
2022-12-02T18:35:33.391Z,101522.98
2022-12-02T18:37:40.546Z,101525.84
2022-12-02T18:39:49.338Z,101525.16
2022-12-02T18:41:57.439Z,101520.93
2022-12-02T18:44:06.834Z,101516.47
2022-12-02T18:46:15.627Z,101521.09
2022-12-02T18:48:24.489Z,101516.13
2022-12-02T18:50:32.385Z,101518.33
2022-12-02T18:52:39.794Z,101516.19
2022-12-02T18:54:46.322Z,101513.52
2022-12-02T18:56:55.253Z,101512.19
2022-12-02T18:59:02.631Z,101510.58
2022-12-02T19:01:09.888Z,101505.11
2022-12-02T19:03:20.797Z,101505.46
2022-12-02T19:05:30.029Z,101507.13
2022-12-02T19:07:40.370Z,101507.91
2022-12-02T19:09:55.359Z,101505.5
2022-12-02T19:12:03.200Z,101505.47
2022-12-02T19:14:14.147Z,101506.55
2022-12-02T19:16:22.011Z,101503.59
2022-12-02T19:18:32.729Z,101505.14
2022-12-02T19:20:44.118Z,101501.42
2022-12-02T19:22:52.953Z,101502.63
2022-12-02T19:24:59.641Z,101502.25
2022-12-02T19:27:07.001Z,101505.44
2022-12-02T19:29:42.417Z,101503.27
2022-12-02T19:31:49.906Z,101507.95
2022-12-02T19:33:58.557Z,101506
2022-12-02T19:36:06.825Z,101509.17
2022-12-02T19:38:26.821Z,101505.94
2022-12-02T19:40:44.563Z,101510.72
2022-12-02T19:42:54.184Z,101512.52
2022-12-02T19:45:01.890Z,101512.14
2022-12-02T19:47:14.058Z,101514.49
2022-12-02T19:49:22.187Z,101511.03
2022-12-02T19:51:29.698Z,101511.08
2022-12-02T19:53:37.152Z,101510.45
2022-12-02T19:55:46.605Z,101510.73
2022-12-02T19:57:57.066Z,101512.8
2022-12-02T20:00:10.274Z,101506.06
2022-12-02T20:02:19.965Z,101509.13
2022-12-02T20:04:48.232Z,101512.01
2022-12-02T20:06:59.833Z,101511.45
2022-12-02T20:09:11.616Z,101514.73
2022-12-02T20:11:21.626Z,101511.06
2022-12-02T20:13:30.780Z,101515.06
2022-12-02T20:15:39.564Z,101512.84
2022-12-02T20:17:48.215Z,101510.16
2022-12-02T20:20:11.748Z,101508.42
2022-12-02T20:22:25.563Z,101504.28
2022-12-02T20:24:45.508Z,101510.5
2022-12-02T20:26:55.578Z,101509.52
2022-12-02T20:29:04.465Z,101512.3
2022-12-02T20:31:14.294Z,101506.17
2022-12-02T20:33:26.812Z,101508.53
2022-12-02T20:35:37.780Z,101510.48
2022-12-02T20:37:48.240Z,101510.07
2022-12-02T20:40:01.174Z,101501.8
2022-12-02T20:42:07.694Z,101503.16
2022-12-02T20:44:15.464Z,101502.73
2022-12-02T20:46:24.588Z,101501.29
2022-12-02T20:48:32.736Z,101502.98
2022-12-02T20:50:47.200Z,101501.54
2022-12-02T20:52:56.431Z,101499.04
2022-12-02T20:55:08.430Z,101499.25
2022-12-02T20:57:16.989Z,101500.7
2022-12-02T20:59:25.088Z,101497.41
2022-12-02T21:01:31.478Z,101499.19
2022-12-02T21:03:41.064Z,101499.2
2022-12-02T21:05:50.686Z,101496.77
2022-12-02T21:08:00.222Z,101491.84
2022-12-02T21:10:12.795Z,101498.41
2022-12-02T21:12:22.893Z,101495.2
2022-12-02T21:14:37.392Z,101498.58
2022-12-02T21:16:47.909Z,101495.66
2022-12-02T21:18:58.604Z,101501.34
2022-12-02T21:21:06.249Z,101499.69
2022-12-02T21:23:13.108Z,101494.68
2022-12-02T21:25:19.605Z,101500.77
2022-12-02T21:27:26.199Z,101499.89
2022-12-02T21:29:33.420Z,101498.34
2022-12-02T21:31:42.345Z,101494.44
2022-12-02T21:33:48.477Z,101497.25
2022-12-02T21:35:54.837Z,101498.25
2022-12-02T21:38:02.959Z,101496.11
2022-12-02T21:40:09.517Z,101498.45
2022-12-02T21:42:14.840Z,101496.04
2022-12-02T21:44:20.455Z,101495.51
2022-12-02T21:46:26.958Z,101500.72
2022-12-02T21:48:34.309Z,101497.98
2022-12-02T21:50:41.153Z,101497.33
2022-12-02T21:52:47.453Z,101495.66
2022-12-02T21:54:55.209Z,101495.58
2022-12-02T21:57:01.231Z,101493.7
2022-12-02T21:59:07.028Z,101498
2022-12-02T22:01:12.590Z,101498.44
2022-12-02T22:03:18.352Z,101495.83
2022-12-02T22:05:23.818Z,101497.44
2022-12-02T22:07:30.522Z,101492.67
2022-12-02T22:09:36.461Z,101491.22
2022-12-02T22:11:42.271Z,101492.36
2022-12-02T22:13:48.429Z,101490.75
2022-12-02T22:15:53.717Z,101487.7
2022-12-02T22:17:59.441Z,101481.57
2022-12-02T22:20:04.815Z,101480.98
2022-12-02T22:22:10.620Z,101486.09
2022-12-02T22:24:16.005Z,101483.98
2022-12-02T22:26:21.837Z,101484.58
2022-12-02T22:28:27.348Z,101483.2
2022-12-02T22:30:32.711Z,101489.27
2022-12-02T22:32:38.414Z,101484.38
2022-12-02T22:34:44.059Z,101486.81
2022-12-02T22:36:49.764Z,101486.81
2022-12-02T22:38:55.035Z,101485.09
2022-12-02T22:41:00.629Z,101481.83
2022-12-02T22:43:06.034Z,101481.38
2022-12-02T22:45:11.456Z,101482.66
2022-12-02T22:47:16.780Z,101481.19
2022-12-02T22:49:22.051Z,101474.13
2022-12-02T22:51:35.732Z,101471.14
2022-12-02T22:53:41.224Z,101473.12
2022-12-02T22:55:46.701Z,101472.84
2022-12-02T22:57:52.315Z,101472.56
2022-12-02T22:59:57.974Z,101467.81
2022-12-02T23:02:03.850Z,101462.5
2022-12-02T23:04:09.826Z,101462
2022-12-02T23:06:15.576Z,101463.53
2022-12-02T23:08:21.169Z,101466.77
2022-12-02T23:10:26.998Z,101462.24
2022-12-02T23:12:32.295Z,101462.97
2022-12-02T23:14:37.534Z,101464.81
2022-12-02T23:16:43.181Z,101461.76
2022-12-02T23:18:48.736Z,101459.33
2022-12-02T23:20:54.185Z,101464.81
2022-12-02T23:22:59.891Z,101462.27
2022-12-02T23:25:05.457Z,101467.26
2022-12-02T23:27:10.799Z,101468.77
2022-12-02T23:29:16.201Z,101470.56
2022-12-02T23:31:21.741Z,101474.48
2022-12-02T23:33:27.224Z,101470.2
2022-12-02T23:35:32.534Z,101469.38
2022-12-02T23:37:38.061Z,101466.77
2022-12-02T23:39:43.181Z,101465.95
2022-12-02T23:41:48.279Z,101461.57
2022-12-02T23:43:53.369Z,101460.64
2022-12-02T23:45:59.096Z,101456.58
2022-12-02T23:48:04.574Z,101452.23
2022-12-02T23:50:09.815Z,101444.29
2022-12-02T23:52:15.225Z,101443.63
2022-12-02T23:54:20.475Z,101442.95
2022-12-02T23:56:25.671Z,101442.53
2022-12-02T23:58:30.945Z,101444.27
